createdAt,value
2019-05-23T00:00:27.286Z,72.10
2019-05-23T00:02:57.381Z,72.20
2019-05-23T00:05:36.484Z,72.10
2019-05-23T00:08:06.817Z,71.80
2019-05-23T00:10:37.416Z,72.00
2019-05-23T00:13:13.372Z,72.00
2019-05-23T00:15:43.830Z,72.40
2019-05-23T00:18:12.956Z,72.40
2019-05-23T00:20:42.674Z,72.20
2019-05-23T00:23:13.359Z,72.30
2019-05-23T00:25:44.007Z,71.80
2019-05-23T00:28:12.710Z,72.20
2019-05-23T00:30:52.170Z,72.50
2019-05-23T00:33:22.588Z,72.50
2019-05-23T00:35:52.431Z,72.50
2019-05-23T00:38:22.200Z,72.70
2019-05-23T00:40:52.781Z,72.40
2019-05-23T00:43:22.237Z,71.80
2019-05-23T00:45:51.304Z,71.80
2019-05-23T00:48:21.155Z,72.00
2019-05-23T00:50:50.861Z,72.00
2019-05-23T00:53:20.162Z,72.30
2019-05-23T00:55:49.014Z,72.60
2019-05-23T00:58:19.490Z,72.70
2019-05-23T01:00:49.369Z,72.90
2019-05-23T01:03:19.106Z,72.80
2019-05-23T01:05:48.158Z,72.80
2019-05-23T01:08:16.593Z,73.00
2019-05-23T01:10:45.272Z,73.20
2019-05-23T01:13:14.265Z,73.20
2019-05-23T01:15:44.604Z,73.10
2019-05-23T01:18:13.280Z,72.80
2019-05-23T01:20:55.463Z,72.50
2019-05-23T01:23:25.525Z,72.50
2019-05-23T01:25:53.945Z,72.60
2019-05-23T01:28:23.054Z,72.60
2019-05-23T01:30:53.864Z,72.80
2019-05-23T01:33:23.284Z,72.70
2019-05-23T01:35:52.507Z,72.80
2019-05-23T01:38:21.105Z,72.90
2019-05-23T01:40:50.040Z,73.00
2019-05-23T01:43:19.726Z,72.90
2019-05-23T01:45:48.414Z,73.10
2019-05-23T01:48:16.854Z,73.10
2019-05-23T01:50:45.281Z,73.30
2019-05-23T01:53:14.991Z,73.00
2019-05-23T01:55:44.378Z,73.10
2019-05-23T01:58:13.421Z,73.20
2019-05-23T02:00:43.337Z,73.10
2019-05-23T02:03:12.501Z,73.00
2019-05-23T02:05:41.393Z,72.90
2019-05-23T02:08:12.766Z,72.90
2019-05-23T02:10:41.958Z,72.90
2019-05-23T02:13:11.201Z,72.80
2019-05-23T02:15:40.177Z,72.80
2019-05-23T02:18:09.333Z,72.60
2019-05-23T02:20:38.074Z,72.60
2019-05-23T02:23:07.442Z,72.70
2019-05-23T02:25:36.865Z,72.70
2019-05-23T02:28:06.565Z,72.80
2019-05-23T02:30:36.337Z,72.80
2019-05-23T02:33:05.600Z,72.70
2019-05-23T02:35:34.410Z,72.90
2019-05-23T02:38:22.696Z,73.00
2019-05-23T02:41:04.469Z,73.10
2019-05-23T02:43:34.000Z,72.90
2019-05-23T02:46:06.444Z,73.10
2019-05-23T02:48:37.938Z,72.80
2019-05-23T02:51:14.080Z,72.90
2019-05-23T02:53:44.212Z,73.20
2019-05-23T02:56:16.595Z,73.10
2019-05-23T02:59:11.307Z,73.20
2019-05-23T03:02:00.675Z,73.20
2019-05-23T03:04:31.054Z,73.60
2019-05-23T03:07:02.691Z,73.60
2019-05-23T03:09:33.522Z,73.50
2019-05-23T03:12:03.768Z,73.40
2019-05-23T03:14:35.643Z,73.40
2019-05-23T03:17:07.776Z,73.30
2019-05-23T03:19:55.858Z,73.40
2019-05-23T03:22:34.264Z,73.40
2019-05-23T03:25:06.079Z,73.50
2019-05-23T03:27:40.313Z,73.60
2019-05-23T03:30:17.698Z,73.60
2019-05-23T03:32:48.064Z,73.50
2019-05-23T03:35:27.057Z,73.60
2019-05-23T03:37:56.512Z,73.50
2019-05-23T03:40:25.020Z,73.50
2019-05-23T03:42:54.786Z,73.30
2019-05-23T03:45:27.599Z,73.10
2019-05-23T03:47:56.445Z,73.10
2019-05-23T03:50:25.857Z,72.80
2019-05-23T03:52:56.784Z,73.00
2019-05-23T03:55:28.017Z,73.20
2019-05-23T03:57:56.614Z,72.80
2019-05-23T04:00:27.844Z,72.70
2019-05-23T04:02:57.608Z,72.60
2019-05-23T04:05:26.305Z,72.30
2019-05-23T04:07:55.007Z,72.60
2019-05-23T04:10:24.746Z,72.50
2019-05-23T04:12:54.255Z,72.60
2019-05-23T04:15:24.034Z,72.60
2019-05-23T04:17:53.339Z,72.60
2019-05-23T04:20:22.084Z,72.40
2019-05-23T04:22:50.921Z,72.20
2019-05-23T04:25:20.420Z,72.00
2019-05-23T04:27:49.361Z,71.90
2019-05-23T04:30:18.343Z,72.00
2019-05-23T04:32:46.791Z,71.70
2019-05-23T04:35:15.299Z,71.70
2019-05-23T04:37:43.801Z,71.30
2019-05-23T04:40:13.182Z,71.20
2019-05-23T04:42:41.643Z,71.30
2019-05-23T04:45:10.463Z,71.40
2019-05-23T04:47:39.423Z,71.10
2019-05-23T04:50:10.069Z,71.20
2019-05-23T04:52:38.655Z,71.10
2019-05-23T04:55:08.981Z,70.80
2019-05-23T04:57:38.403Z,70.80
2019-05-23T05:00:09.383Z,70.40
2019-05-23T05:02:39.925Z,70.20
2019-05-23T05:05:08.619Z,69.80
2019-05-23T05:07:38.824Z,69.50
2019-05-23T05:10:09.054Z,69.10
2019-05-23T05:12:37.938Z,68.90
2019-05-23T05:15:06.874Z,68.50
2019-05-23T05:17:35.820Z,68.20
2019-05-23T05:20:06.366Z,67.90
2019-05-23T05:22:35.466Z,67.70
2019-05-23T05:25:05.680Z,67.50
2019-05-23T05:27:34.603Z,67.20
2019-05-23T05:30:05.194Z,67.30
2019-05-23T05:32:44.300Z,67.30
2019-05-23T05:35:06.070Z,67.20
2019-05-23T05:37:34.921Z,67.00
2019-05-23T05:40:06.173Z,66.70
2019-05-23T05:42:36.073Z,66.20
2019-05-23T05:45:07.592Z,66.30
2019-05-23T05:47:36.799Z,66.10
2019-05-23T05:50:08.618Z,65.90
2019-05-23T05:52:38.920Z,65.90
2019-05-23T05:55:07.718Z,65.80
2019-05-23T05:57:36.666Z,65.60
2019-05-23T06:00:12.890Z,65.80
2019-05-23T06:02:41.565Z,65.50
2019-05-23T06:05:12.604Z,65.70
2019-05-23T06:10:20.934Z,65.00
2019-05-23T06:12:49.539Z,65.20
2019-05-23T06:15:18.443Z,64.90
2019-05-23T06:17:48.136Z,64.70
2019-05-23T06:20:17.629Z,65.20
2019-05-23T06:22:46.724Z,64.50
2019-05-23T06:25:15.812Z,64.20
2019-05-23T06:27:44.263Z,64.50
2019-05-23T06:30:15.574Z,64.50
2019-05-23T06:32:44.983Z,64.50
2019-05-23T06:35:14.755Z,64.70
2019-05-23T06:37:43.406Z,63.50
2019-05-23T06:40:12.890Z,63.90
2019-05-23T06:42:41.412Z,63.60
2019-05-23T06:45:11.432Z,63.60
2019-05-23T06:47:40.573Z,63.50
2019-05-23T06:50:12.636Z,63.90
2019-05-23T06:52:41.723Z,63.00
2019-05-23T06:55:10.533Z,62.30
2019-05-23T06:57:38.984Z,62.10
2019-05-23T07:00:08.578Z,61.80
2019-05-23T07:02:37.455Z,61.70
2019-05-23T07:05:06.248Z,61.90
2019-05-23T07:07:36.201Z,61.10
2019-05-23T07:10:07.334Z,61.30
2019-05-23T07:12:36.722Z,61.20
2019-05-23T07:15:09.090Z,60.60
2019-05-23T07:17:38.293Z,60.50
2019-05-23T07:20:08.915Z,58.70
2019-05-23T07:22:37.936Z,58.20
2019-05-23T07:25:07.387Z,57.50
2019-05-23T07:27:35.966Z,55.30
2019-05-23T07:30:10.273Z,55.00
2019-05-23T07:32:39.021Z,54.10
2019-05-23T07:35:07.715Z,53.40
2019-05-23T07:37:36.151Z,54.90
2019-05-23T07:40:06.316Z,52.60
2019-05-23T07:42:34.959Z,50.40
2019-05-23T07:45:07.051Z,51.70
2019-05-23T07:47:39.897Z,51.60
2019-05-23T07:50:08.098Z,51.80
2019-05-23T07:52:37.203Z,44.60
2019-05-23T07:55:16.855Z,44.80
2019-05-23T07:57:46.252Z,45.70
2019-05-23T08:00:17.660Z,45.70
2019-05-23T08:02:46.965Z,44.20
2019-05-23T08:05:15.550Z,44.10
2019-05-23T08:07:44.979Z,44.50
2019-05-23T08:10:32.194Z,45.00
2019-05-23T08:12:45.577Z,44.70
2019-05-23T08:15:15.370Z,45.60
2019-05-23T08:17:44.347Z,45.30
2019-05-23T08:20:13.607Z,46.60
2019-05-23T08:22:42.099Z,46.50
2019-05-23T08:25:10.903Z,45.10
2019-05-23T08:27:39.598Z,44.50
2019-05-23T08:30:10.250Z,44.20
2019-05-23T08:32:39.328Z,42.70
2019-05-23T08:35:08.961Z,44.30
2019-05-23T08:37:38.794Z,43.10
2019-05-23T08:40:09.638Z,44.10
2019-05-23T08:42:38.647Z,44.00
2019-05-23T08:45:09.223Z,44.00
2019-05-23T08:47:37.856Z,46.00
2019-05-23T08:50:08.430Z,43.80
2019-05-23T08:52:37.014Z,45.10
2019-05-23T08:55:25.869Z,41.90
2019-05-23T08:57:57.965Z,42.60
2019-05-23T09:00:28.366Z,40.80
2019-05-23T09:02:59.072Z,41.40
2019-05-23T09:05:29.678Z,43.30
2019-05-23T09:07:58.198Z,41.40
2019-05-23T09:10:27.211Z,41.50
2019-05-23T09:12:55.659Z,41.10
2019-05-23T09:15:24.410Z,42.30
2019-05-23T09:17:54.262Z,43.30
2019-05-23T09:20:23.386Z,43.50
2019-05-23T09:22:51.981Z,44.40
2019-05-23T09:25:21.504Z,43.90
2019-05-23T09:27:51.772Z,42.40
2019-05-23T09:30:21.857Z,44.60
2019-05-23T09:32:51.052Z,43.10
2019-05-23T09:35:22.135Z,43.80
2019-05-23T09:37:50.614Z,41.10
2019-05-23T09:40:19.732Z,41.90
2019-05-23T09:42:48.325Z,42.60
2019-05-23T09:45:18.006Z,39.20
2019-05-23T09:47:51.011Z,38.50
2019-05-23T09:50:19.723Z,38.90
2019-05-23T09:52:48.228Z,38.40
2019-05-23T09:55:17.301Z,39.00
2019-05-23T09:57:45.838Z,41.50
2019-05-23T10:00:22.142Z,40.60
2019-05-23T10:02:51.271Z,41.00
2019-05-23T10:05:40.116Z,39.40
2019-05-23T10:07:50.354Z,38.90
2019-05-23T10:10:19.396Z,37.40
2019-05-23T10:12:47.839Z,38.30
2019-05-23T10:15:18.055Z,39.20
2019-05-23T10:17:46.516Z,37.40
2019-05-23T10:20:15.169Z,37.00
2019-05-23T10:22:43.664Z,35.90
2019-05-23T10:25:12.456Z,37.80
2019-05-23T10:27:41.219Z,37.20
2019-05-23T10:30:11.963Z,38.50
2019-05-23T10:32:40.413Z,36.20
2019-05-23T10:35:10.119Z,38.60
2019-05-23T10:37:38.669Z,37.10
2019-05-23T10:40:09.242Z,34.10
2019-05-23T10:42:38.091Z,36.20
2019-05-23T10:45:08.954Z,35.60
2019-05-23T10:47:37.399Z,36.50
2019-05-23T10:50:10.192Z,34.60
2019-05-23T10:52:38.897Z,35.80
2019-05-23T10:55:08.233Z,36.60
2019-05-23T10:57:36.979Z,32.90
2019-05-23T11:00:07.546Z,32.80
2019-05-23T11:02:36.861Z,33.20
2019-05-23T11:05:13.106Z,36.10
2019-05-23T11:07:37.462Z,37.50
2019-05-23T11:10:07.790Z,37.60
2019-05-23T11:12:36.243Z,35.10
2019-05-23T11:15:07.454Z,36.80
2019-05-23T11:17:38.145Z,32.60
2019-05-23T11:20:08.958Z,35.70
2019-05-23T11:22:37.474Z,33.50
2019-05-23T11:25:08.708Z,34.40
2019-05-23T11:27:37.214Z,33.50
2019-05-23T11:30:11.478Z,33.90
2019-05-23T11:32:39.968Z,31.30
2019-05-23T11:35:08.776Z,31.80
2019-05-23T11:37:37.430Z,32.70
2019-05-23T11:40:08.242Z,35.00
2019-05-23T11:42:36.748Z,32.50
2019-05-23T11:45:06.828Z,30.70
2019-05-23T11:47:35.267Z,34.40
2019-05-23T11:50:07.612Z,34.50
2019-05-23T11:52:36.121Z,33.30
2019-05-23T11:55:07.556Z,33.00
2019-05-23T11:57:38.420Z,31.30
2019-05-23T12:00:09.833Z,33.10
2019-05-23T12:02:43.540Z,30.40
2019-05-23T12:05:13.976Z,31.80
2019-05-23T12:07:42.416Z,33.00
2019-05-23T12:10:11.425Z,31.80
2019-05-23T12:12:39.876Z,32.00
2019-05-23T12:15:13.165Z,29.00
2019-05-23T12:17:42.848Z,31.30
2019-05-23T12:20:11.858Z,31.70
2019-05-23T12:22:40.866Z,31.40
2019-05-23T12:25:21.979Z,28.20
2019-05-23T12:27:41.137Z,28.90
2019-05-23T12:30:13.871Z,28.80
2019-05-23T12:32:41.536Z,30.40
2019-05-23T12:35:12.457Z,29.70
2019-05-23T12:37:41.424Z,33.50
2019-05-23T12:40:12.476Z,29.00
2019-05-23T12:42:41.353Z,31.00
2019-05-23T12:45:12.127Z,30.00
2019-05-23T12:48:00.284Z,29.00
2019-05-23T12:50:33.467Z,31.00
2019-05-23T12:53:02.651Z,31.10
2019-05-23T12:55:31.168Z,30.00
2019-05-23T12:58:00.072Z,29.50
2019-05-23T13:00:36.098Z,30.70
2019-05-23T13:03:05.449Z,28.90
2019-05-23T13:05:34.679Z,34.30
2019-05-23T13:08:06.341Z,31.80
2019-05-23T13:10:37.742Z,27.80
2019-05-23T13:13:06.842Z,29.20
2019-05-23T13:15:35.824Z,30.10
2019-05-23T13:18:04.607Z,31.40
2019-05-23T13:20:34.481Z,29.50
2019-05-23T13:23:03.085Z,31.10
2019-05-23T13:25:31.903Z,27.80
2019-05-23T13:28:00.364Z,28.60
2019-05-23T13:30:29.340Z,29.20
2019-05-23T13:32:57.851Z,31.50
2019-05-23T13:35:26.930Z,31.00
2019-05-23T13:37:58.288Z,30.00
2019-05-23T13:40:27.160Z,30.80
2019-05-23T13:42:55.786Z,29.80
2019-05-23T13:45:24.510Z,31.80
2019-05-23T13:47:53.023Z,30.60
2019-05-23T13:50:22.176Z,29.50
2019-05-23T13:52:54.690Z,31.20
2019-05-23T13:55:23.706Z,30.10
2019-05-23T13:57:52.541Z,32.30
2019-05-23T14:00:21.229Z,27.10
2019-05-23T14:02:50.122Z,28.50
2019-05-23T14:05:19.780Z,27.50
2019-05-23T14:07:48.308Z,30.80
2019-05-23T14:10:17.362Z,29.80
2019-05-23T14:12:46.208Z,27.60
2019-05-23T14:15:16.424Z,27.30
2019-05-23T14:17:46.847Z,28.90
2019-05-23T14:20:16.053Z,28.30
2019-05-23T14:22:52.985Z,29.10
2019-05-23T14:25:21.960Z,28.20
2019-05-23T14:27:52.376Z,29.20
2019-05-23T14:30:38.157Z,28.20
2019-05-23T14:33:11.999Z,29.30
2019-05-23T14:35:45.147Z,28.30
2019-05-23T14:38:29.636Z,28.90
2019-05-23T14:40:46.839Z,28.40
2019-05-23T14:43:17.320Z,29.20
2019-05-23T14:45:47.747Z,30.90
2019-05-23T14:48:17.865Z,29.50
2019-05-23T14:50:53.971Z,29.20
2019-05-23T14:53:36.110Z,29.60
2019-05-23T14:56:05.104Z,28.00
2019-05-23T14:58:33.905Z,27.90
2019-05-23T15:01:03.879Z,29.30
2019-05-23T15:03:35.565Z,30.00
2019-05-23T15:06:02.766Z,30.40
2019-05-23T15:08:49.440Z,29.90
2019-05-23T15:11:01.812Z,30.50
2019-05-23T15:13:30.554Z,29.50
2019-05-23T15:16:00.663Z,29.40
2019-05-23T15:18:29.167Z,28.00
2019-05-23T15:20:57.659Z,29.60
2019-05-23T15:23:26.439Z,28.90
2019-05-23T15:25:54.995Z,28.90
2019-05-23T15:28:24.106Z,29.80
2019-05-23T15:30:52.639Z,29.80
2019-05-23T15:33:21.219Z,29.50
2019-05-23T15:35:50.472Z,28.70
2019-05-23T15:38:18.920Z,29.20
2019-05-23T15:40:47.641Z,30.00
2019-05-23T15:43:16.420Z,30.30
2019-05-23T15:45:45.114Z,30.00
2019-05-23T15:48:13.591Z,29.60
2019-05-23T15:50:43.784Z,29.50
2019-05-23T15:53:30.876Z,31.10
2019-05-23T15:56:16.801Z,30.90
2019-05-23T15:58:38.715Z,31.10
2019-05-23T16:01:09.011Z,29.20
2019-05-23T16:03:39.416Z,29.10
2019-05-23T16:06:09.940Z,29.10
2019-05-23T16:08:38.777Z,29.80
2019-05-23T16:11:07.549Z,28.60
2019-05-23T16:13:36.078Z,29.40
2019-05-23T16:16:04.924Z,30.20
2019-05-23T16:18:33.886Z,29.20
2019-05-23T16:21:02.760Z,29.60
2019-05-23T16:23:31.211Z,28.80
2019-05-23T16:25:59.684Z,28.30
2019-05-23T16:28:28.702Z,28.40
2019-05-23T16:30:57.848Z,28.80
2019-05-23T16:33:26.896Z,30.50
2019-05-23T16:35:55.355Z,31.80
2019-05-23T16:38:23.861Z,29.90
2019-05-23T16:40:52.307Z,30.00
2019-05-23T16:43:21.296Z,29.20
2019-05-23T16:45:49.846Z,29.10
2019-05-23T16:48:18.370Z,28.80
2019-05-23T16:50:46.877Z,28.70
2019-05-23T16:53:15.306Z,28.70
2019-05-23T16:55:54.907Z,29.70
2019-05-23T16:58:28.096Z,30.80
2019-05-23T17:00:58.464Z,31.70
2019-05-23T17:03:28.763Z,31.90
2019-05-23T17:06:01.704Z,32.30
2019-05-23T17:08:48.180Z,31.60
2019-05-23T17:11:33.703Z,33.50
2019-05-23T17:14:18.767Z,34.40
2019-05-23T17:16:54.795Z,34.90
2019-05-23T17:19:31.062Z,33.70
2019-05-23T17:22:18.107Z,34.50
2019-05-23T17:24:57.451Z,34.60
2019-05-23T17:27:27.590Z,34.40
2019-05-23T17:30:01.464Z,34.10
2019-05-23T17:32:31.613Z,35.60
2019-05-23T17:35:00.116Z,35.20
2019-05-23T17:37:28.845Z,34.80
2019-05-23T17:39:57.338Z,35.90
2019-05-23T17:42:25.944Z,35.00
2019-05-23T17:44:54.380Z,34.10
2019-05-23T17:47:23.143Z,34.20
2019-05-23T17:49:51.747Z,34.00
2019-05-23T17:52:21.085Z,35.90
2019-05-23T17:54:49.851Z,35.70
2019-05-23T17:57:18.743Z,36.30
2019-05-23T17:59:47.195Z,36.40
2019-05-23T18:02:16.139Z,34.80
2019-05-23T18:04:44.586Z,34.60
2019-05-23T18:07:13.596Z,34.40
2019-05-23T18:09:42.514Z,34.70
2019-05-23T18:12:11.787Z,34.70
2019-05-23T18:14:40.752Z,34.10
2019-05-23T18:17:09.377Z,34.80
2019-05-23T18:19:38.879Z,35.10
2019-05-23T18:22:08.466Z,35.50
2019-05-23T18:24:38.023Z,35.70
2019-05-23T18:27:08.107Z,35.20
2019-05-23T18:29:37.182Z,35.40
2019-05-23T18:32:08.549Z,35.70
2019-05-23T18:34:37.642Z,36.40
2019-05-23T18:37:07.878Z,36.30
2019-05-23T18:39:36.325Z,37.10
2019-05-23T18:42:04.834Z,36.50
2019-05-23T18:44:33.882Z,36.90
2019-05-23T18:47:04.248Z,37.20
2019-05-23T18:49:33.853Z,37.30
2019-05-23T18:52:02.469Z,37.60
2019-05-23T18:54:31.051Z,37.90
2019-05-23T18:56:59.751Z,38.20
2019-05-23T18:59:28.183Z,38.30
2019-05-23T19:01:56.901Z,38.50
2019-05-23T19:04:25.340Z,39.20
2019-05-23T19:06:53.874Z,40.30
2019-05-23T19:09:22.554Z,41.50
2019-05-23T19:11:51.090Z,41.90
2019-05-23T19:14:19.518Z,42.30
2019-05-23T19:16:48.126Z,43.00
2019-05-23T19:19:16.903Z,43.50
2019-05-23T19:21:45.353Z,43.30
2019-05-23T19:24:13.801Z,43.60
2019-05-23T19:26:43.342Z,43.90
2019-05-23T19:29:12.016Z,44.30
2019-05-23T19:31:40.501Z,44.60
2019-05-23T19:34:08.950Z,45.10
2019-05-23T19:36:37.715Z,44.70
2019-05-23T19:39:07.706Z,45.00
2019-05-23T19:41:38.109Z,45.70
2019-05-23T19:44:06.952Z,46.40
2019-05-23T19:46:35.794Z,47.20
2019-05-23T19:49:04.521Z,48.30
2019-05-23T19:51:33.031Z,49.20
2019-05-23T19:54:02.686Z,49.80
2019-05-23T19:56:31.720Z,50.30
2019-05-23T19:59:00.452Z,51.20
2019-05-23T20:01:32.322Z,51.00
2019-05-23T20:04:00.978Z,51.00
2019-05-23T20:06:30.754Z,50.80
2019-05-23T20:08:59.967Z,50.50
2019-05-23T20:11:29.331Z,50.30
2019-05-23T20:13:57.810Z,50.50
2019-05-23T20:16:26.719Z,50.50
2019-05-23T20:18:55.422Z,50.30
2019-05-23T20:21:24.266Z,50.40
2019-05-23T20:23:52.702Z,50.80
2019-05-23T20:26:21.147Z,50.60
2019-05-23T20:28:49.666Z,51.80
2019-05-23T20:31:22.817Z,51.30
2019-05-23T20:33:51.323Z,51.90
2019-05-23T20:36:19.842Z,51.60
2019-05-23T20:38:48.279Z,52.30
2019-05-23T20:41:18.101Z,53.00
2019-05-23T20:43:46.603Z,53.10
2019-05-23T20:46:15.298Z,52.90
2019-05-23T20:48:43.945Z,53.00
2019-05-23T20:51:12.664Z,53.50
2019-05-23T20:53:41.531Z,53.00
2019-05-23T20:56:10.501Z,52.60
2019-05-23T20:58:39.377Z,53.10
2019-05-23T21:01:16.363Z,53.00
2019-05-23T21:03:45.652Z,52.80
2019-05-23T21:06:14.695Z,52.90
2019-05-23T21:08:43.258Z,53.10
2019-05-23T21:11:12.014Z,53.00
2019-05-23T21:13:40.798Z,53.00
2019-05-23T21:16:09.320Z,53.20
2019-05-23T21:18:37.828Z,53.20
2019-05-23T21:21:07.177Z,53.30
2019-05-23T21:23:35.804Z,53.60
2019-05-23T21:26:06.107Z,53.80
2019-05-23T21:28:34.966Z,54.20
2019-05-23T21:31:05.750Z,54.40
2019-05-23T21:33:34.190Z,54.60
2019-05-23T21:36:03.405Z,54.80
2019-05-23T21:38:31.980Z,55.00
2019-05-23T21:41:03.241Z,55.20
2019-05-23T21:43:30.883Z,55.40
2019-05-23T21:45:59.864Z,55.70
2019-05-23T21:48:28.582Z,55.80
2019-05-23T21:50:57.026Z,56.60
2019-05-23T21:53:25.478Z,56.40
2019-05-23T21:55:54.358Z,56.60
2019-05-23T21:58:22.989Z,56.80
2019-05-23T22:01:08.228Z,56.80
2019-05-23T22:03:39.511Z,57.00
2019-05-23T22:06:12.453Z,57.20
2019-05-23T22:08:41.143Z,57.50
2019-05-23T22:11:09.911Z,57.60
2019-05-23T22:13:38.676Z,57.70
2019-05-23T22:16:08.234Z,57.70
2019-05-23T22:18:36.694Z,58.00
2019-05-23T22:21:05.134Z,57.80
2019-05-23T22:23:34.830Z,57.80
2019-05-23T22:26:03.632Z,57.70
2019-05-23T22:28:32.077Z,58.10
2019-05-23T22:31:00.520Z,58.30
2019-05-23T22:33:30.913Z,58.50
2019-05-23T22:36:00.550Z,58.60
2019-05-23T22:38:29.607Z,58.70
2019-05-23T22:40:58.039Z,58.90
2019-05-23T22:43:26.739Z,58.80
2019-05-23T22:45:55.243Z,59.20
2019-05-23T22:48:23.689Z,59.50
2019-05-23T22:50:52.394Z,59.50
2019-05-23T22:53:21.114Z,59.70
2019-05-23T22:55:49.546Z,59.90
2019-05-23T22:58:18.004Z,59.80
2019-05-23T23:00:48.404Z,60.00
2019-05-23T23:03:17.095Z,60.00
2019-05-23T23:05:45.535Z,60.00
2019-05-23T23:08:14.165Z,60.10
2019-05-23T23:10:43.031Z,60.10
2019-05-23T23:13:12.659Z,60.20
2019-05-23T23:15:41.173Z,60.30
2019-05-23T23:18:09.674Z,60.20
2019-05-23T23:20:38.121Z,60.20
2019-05-23T23:23:06.571Z,60.30
2019-05-23T23:25:35.367Z,60.40
2019-05-23T23:28:03.801Z,60.30
2019-05-23T23:30:36.586Z,60.40
2019-05-23T23:33:05.010Z,60.40
2019-05-23T23:35:34.714Z,60.40
2019-05-23T23:38:03.475Z,60.50
2019-05-23T23:40:32.389Z,60.50
2019-05-23T23:43:00.917Z,60.50
2019-05-23T23:45:47.230Z,60.60
2019-05-23T23:48:34.015Z,60.70
2019-05-23T23:51:20.774Z,60.70
2019-05-23T23:54:07.379Z,60.80
2019-05-23T23:56:54.734Z,60.80
2019-05-23T23:59:23.216Z,60.80
